Time;durP1;ratioP1;P1;durP2;ratioP2;P2;SDS_P1;SDS_P2;PMS_P1;PMS_P2;Temp;Humidity;BMP_temperature;BMP_pressure;BME280_temperature;BME280_humidity;BME280_pressure;Samples;Min_cycle;Max_cycle;Signal;HPM_P1;HPM_P2
2022/04/09 00:01:52;;;;;;;4.82;0.98;;;10.30;99.90;;;;;;4930595;28;20053;-62
2022/04/09 00:04:19;;;;;;;5.35;1.25;;;10.20;99.90;;;;;;4931640;28;20546;-63
2022/04/09 00:06:46;;;;;;;9.45;1.30;;;10.00;99.90;;;;;;4929867;28;20145;-62
2022/04/09 00:09:13;;;;;;;4.90;1.27;;;9.90;99.90;;;;;;4932305;28;20564;-63
2022/04/09 00:11:41;;;;;;;4.43;0.98;;;9.80;99.90;;;;;;4933012;28;20054;-63
2022/04/09 00:14:08;;;;;;;4.18;1.20;;;9.60;99.90;;;;;;4932253;28;20519;-62
2022/04/09 00:16:35;;;;;;;7.18;1.52;;;9.50;99.90;;;;;;4929888;28;20133;-62
2022/04/09 00:19:02;;;;;;;6.65;0.88;;;9.30;99.90;;;;;;4932990;28;20409;-62
2022/04/09 00:21:31;;;;;;;3.35;1.00;;;9.20;99.90;;;;;;4930944;28;20145;-62
2022/04/09 00:23:58;;;;;;;3.92;0.80;;;9.00;99.90;;;;;;4936084;28;20057;-62
2022/04/09 00:26:25;;;;;;;4.15;1.27;;;8.90;99.90;;;;;;4937588;28;20575;-62
2022/04/09 00:28:52;;;;;;;4.18;0.90;;;8.90;99.90;;;;;;4932323;28;20927;-62
2022/04/09 00:31:19;;;;;;;2.92;1.38;;;8.80;99.90;;;;;;4932502;28;20053;-61
2022/04/09 00:33:46;;;;;;;2.45;0.65;;;8.70;99.90;;;;;;4931118;28;20038;-62
2022/04/09 00:36:13;;;;;;;5.45;0.80;;;8.60;99.90;;;;;;4934585;28;20890;-61
2022/04/09 00:38:40;;;;;;;5.13;0.73;;;8.50;99.90;;;;;;4935256;28;20732;-61
2022/04/09 00:41:11;;;;;;;4.57;0.65;;;8.40;99.90;;;;;;4932600;28;20844;-62
2022/04/09 00:43:41;;;;;;;0.95;0.60;;;8.20;99.90;;;;;;4934299;28;20859;-61
2022/04/09 00:46:12;;;;;;;5.60;0.90;;;8.10;99.90;;;;;;4935177;28;20920;-61
2022/04/09 00:48:41;;;;;;;2.35;0.70;;;8.00;99.90;;;;;;4931645;28;20254;-63
2022/04/09 00:51:08;;;;;;;0.68;0.40;;;7.90;99.90;;;;;;4930203;28;20039;-62
2022/04/09 00:53:39;;;;;;;2.97;0.95;;;7.80;99.90;;;;;;4933589;28;20444;-62
2022/04/09 00:56:20;;;;;;;3.38;0.82;;;7.70;99.90;;;;;;4931644;28;20066;-62
2022/04/09 00:58:55;;;;;;;3.10;0.90;;;7.70;99.90;;;;;;4931049;28;20038;-62
2022/04/09 01:01:32;;;;;;;2.70;1.05;;;7.80;99.90;;;;;;4935493;28;20042;-62
2022/04/09 01:04:00;;;;;;;3.35;1.20;;;7.80;99.90;;;;;;4931028;28;20053;-63
2022/04/09 01:06:27;;;;;;;4.18;0.80;;;7.80;99.90;;;;;;4934179;28;20552;-63
2022/04/09 01:08:54;;;;;;;4.55;0.73;;;7.80;99.90;;;;;;4933103;28;20187;-64
2022/04/09 01:11:21;;;;;;;4.18;0.90;;;7.70;99.90;;;;;;4932526;28;20373;-63
2022/04/09 01:13:48;;;;;;;3.53;0.80;;;7.80;99.90;;;;;;4924792;28;20782;-63
2022/04/09 01:16:15;;;;;;;3.60;0.98;;;7.80;99.90;;;;;;4933379;28;20540;-63
2022/04/09 01:18:44;;;;;;;5.00;0.98;;;7.80;99.90;;;;;;4933506;28;20061;-64
2022/04/09 01:21:12;;;;;;;5.25;1.20;;;7.80;99.90;;;;;;4929851;28;20050;-64
2022/04/09 01:23:39;;;;;;;5.13;1.05;;;7.80;99.90;;;;;;4932166;28;20450;-63
2022/04/09 01:26:07;;;;;;;5.63;0.63;;;7.80;99.90;;;;;;4914407;28;20304;-63
2022/04/09 01:28:38;;;;;;;1.63;0.40;;;7.70;99.90;;;;;;4932478;28;20161;-63
2022/04/09 01:31:05;;;;;;;0.10;0.10;;;7.30;99.90;;;;;;4932568;28;20030;-64
2022/04/09 01:33:32;;;;;;;1.55;0.30;;;7.10;99.90;;;;;;4935740;28;20153;-63
2022/04/09 01:35:59;;;;;;;0.13;0.13;;;6.70;99.90;;;;;;4931525;28;20049;-63
2022/04/09 01:38:27;;;;;;;0.20;0.20;;;6.50;99.90;;;;;;4927381;28;20166;-64
2022/04/09 01:40:54;;;;;;;0.20;0.20;;;6.20;99.90;;;;;;4932126;28;20046;-64
2022/04/09 01:43:23;;;;;;;5.32;0.40;;;6.10;99.90;;;;;;4938838;28;20053;-64
2022/04/09 01:45:54;;;;;;;1.20;0.30;;;5.90;99.90;;;;;;4930421;28;20049;-64
2022/04/09 01:48:23;;;;;;;2.28;0.20;;;5.80;99.90;;;;;;4928932;28;20486;-65
2022/04/09 01:50:51;;;;;;;1.38;0.22;;;5.70;99.90;;;;;;4934150;28;20053;-65
2022/04/09 01:53:19;;;;;;;5.15;0.40;;;5.60;99.90;;;;;;4932346;28;20145;-64
2022/04/09 01:55:46;;;;;;;2.55;0.38;;;5.60;99.90;;;;;;4933298;28;20141;-64
2022/04/09 01:58:13;;;;;;;0.60;0.32;;;5.50;99.90;;;;;;4934853;28;20042;-64
2022/04/09 02:00:43;;;;;;;0.30;0.30;;;5.40;99.90;;;;;;4929118;28;20871;-65
2022/04/09 02:03:10;;;;;;;0.85;0.38;;;5.40;99.90;;;;;;4934423;28;20630;-65
2022/04/09 02:05:37;;;;;;;0.25;0.25;;;5.40;99.90;;;;;;4934726;28;20442;-64
2022/04/09 02:08:05;;;;;;;0.60;0.25;;;5.40;99.90;;;;;;4930304;28;20046;-64
2022/04/09 02:10:34;;;;;;;0.52;0.40;;;5.40;99.90;;;;;;4927916;28;20161;-64
2022/04/09 02:13:04;;;;;;;0.10;0.10;;;5.30;99.90;;;;;;4924247;28;20968;-65
2022/04/09 02:15:31;;;;;;;0.47;0.30;;;5.30;99.90;;;;;;4925750;28;20049;-65
2022/04/09 02:17:59;;;;;;;0.40;0.40;;;5.20;99.90;;;;;;4927200;28;20057;-66
2022/04/09 02:20:26;;;;;;;0.20;0.20;;;5.10;99.90;;;;;;4925732;28;20382;-65
2022/04/09 02:22:53;;;;;;;1.48;1.38;;;5.00;99.90;;;;;;4928312;28;20651;-64
2022/04/09 02:25:20;;;;;;;;;;;4.90;99.90;;;;;;4925144;28;20483;-64
2022/04/09 02:27:47;;;;;;;0.20;0.20;;;4.70;99.90;;;;;;4925566;28;19991;-65
2022/04/09 02:30:18;;;;;;;0.20;0.20;;;4.50;99.90;;;;;;4924149;28;20400;-64
2022/04/09 02:32:51;;;;;;;0.22;0.22;;;4.30;99.90;;;;;;4927225;28;20042;-64
2022/04/09 02:35:28;;;;;;;0.25;0.25;;;4.10;99.90;;;;;;4927385;28;20034;-64
2022/04/09 02:37:57;;;;;;;0.30;0.30;;;4.00;99.90;;;;;;4924373;28;20292;-63
2022/04/09 02:40:28;;;;;;;0.68;0.68;;;3.80;99.90;;;;;;4923359;28;20846;-64
2022/04/09 02:42:56;;;;;;;1.48;0.82;;;3.80;99.90;;;;;;4923280;28;20065;-64
2022/04/09 02:45:24;;;;;;;0.55;0.55;;;3.80;99.90;;;;;;4923515;28;20058;-64
2022/04/09 02:47:52;;;;;;;0.70;0.70;;;3.70;99.90;;;;;;4923687;28;20054;-64
2022/04/09 02:50:22;;;;;;;1.08;0.93;;;3.60;99.90;;;;;;4926732;28;20784;-64
2022/04/09 02:52:49;;;;;;;0.60;0.60;;;3.60;99.90;;;;;;4926787;28;20591;-64
2022/04/09 02:55:18;;;;;;;1.17;0.90;;;3.50;99.90;;;;;;4923979;28;20560;-64
2022/04/09 02:57:46;;;;;;;1.00;0.95;;;3.50;99.90;;;;;;4909911;28;20046;-64
2022/04/09 03:00:17;;;;;;;1.00;0.90;;;3.50;99.90;;;;;;4923114;28;20081;-64
2022/04/09 03:02:44;;;;;;;0.90;0.75;;;3.40;99.90;;;;;;4907956;28;20038;-64
2022/04/09 03:05:26;;;;;;;0.60;0.60;;;3.30;99.90;;;;;;4926092;28;20370;-64
2022/04/09 03:07:53;;;;;;;0.60;0.60;;;3.30;99.90;;;;;;4926005;28;20157;-64
2022/04/09 03:10:20;;;;;;;;;;;3.20;99.90;;;;;;4923245;28;21007;-64
2022/04/09 03:12:48;;;;;;;0.50;0.50;;;3.10;99.90;;;;;;4927276;28;20048;-64
2022/04/09 03:15:16;;;;;;;0.60;0.60;;;3.00;99.90;;;;;;4924148;28;20229;-64
2022/04/09 03:17:44;;;;;;;0.43;0.43;;;3.00;99.90;;;;;;4922578;28;20430;-63
2022/04/09 03:20:15;;;;;;;3.30;0.70;;;2.90;99.90;;;;;;4923213;28;20070;-64
2022/04/09 03:22:46;;;;;;;0.40;0.40;;;2.80;99.90;;;;;;4930646;28;20203;-64
2022/04/09 03:25:20;;;;;;;0.88;0.47;;;2.70;99.90;;;;;;4923382;28;20763;-64
2022/04/09 03:27:50;;;;;;;0.60;0.60;;;2.60;99.90;;;;;;4924108;28;20066;-64
2022/04/09 03:30:19;;;;;;;0.60;0.60;;;2.60;99.90;;;;;;4928168;28;20278;-64
2022/04/09 03:32:47;;;;;;;0.57;0.57;;;2.50;99.90;;;;;;4919340;28;20710;-64
2022/04/09 03:35:19;;;;;;;1.08;0.50;;;2.50;99.90;;;;;;4904227;28;20051;-64
2022/04/09 03:37:48;;;;;;;0.50;0.50;;;2.40;99.90;;;;;;4919277;28;20030;-63
2022/04/09 03:40:20;;;;;;;0.90;0.73;;;2.40;99.90;;;;;;4925195;28;20045;-63
2022/04/09 03:42:48;;;;;;;0.50;0.50;;;2.30;99.90;;;;;;4922436;28;20070;-63
2022/04/09 03:45:15;;;;;;;0.50;0.50;;;2.20;99.90;;;;;;4908122;28;20042;-63
2022/04/09 03:47:42;;;;;;;0.60;0.60;;;2.10;99.90;;;;;;4922508;28;20296;-63
2022/04/09 03:50:14;;;;;;;0.57;0.57;;;2.10;99.90;;;;;;4922411;28;20338;-64
2022/04/09 03:52:43;;;;;;;0.50;0.50;;;2.10;99.90;;;;;;4907684;28;20532;-64
2022/04/09 03:55:11;;;;;;;0.52;0.52;;;2.00;99.90;;;;;;4922696;28;20403;-63
2022/04/09 03:57:38;;;;;;;0.60;0.60;;;1.90;99.90;;;;;;4929444;28;20548;-64
2022/04/09 04:00:08;;;;;;;1.00;0.70;;;1.90;99.90;;;;;;4910866;28;20227;-64
2022/04/09 04:02:44;;;;;;;0.50;0.50;;;1.90;99.90;;;;;;4928555;28;20326;-63
2022/04/09 04:05:15;;;;;;;1.35;0.50;;;1.90;99.90;;;;;;4925809;28;20414;-63
2022/04/09 04:07:46;;;;;;;0.65;0.65;;;1.80;99.90;;;;;;4927883;28;20134;-63
2022/04/09 04:10:17;;;;;;;0.60;0.60;;;1.70;99.90;;;;;;4928189;28;20192;-63
2022/04/09 04:12:48;;;;;;;0.80;0.80;;;1.70;99.90;;;;;;4926063;28;20080;-63
2022/04/09 04:15:18;;;;;;;0.70;0.70;;;1.70;99.90;;;;;;4926454;28;20922;-63
2022/04/09 04:17:49;;;;;;;0.73;0.73;;;1.60;99.90;;;;;;4925292;28;20047;-64
2022/04/09 04:20:21;;;;;;;0.70;0.70;;;1.60;99.90;;;;;;4925494;28;20046;-63
2022/04/09 04:22:54;;;;;;;0.82;0.82;;;1.60;99.90;;;;;;4926897;28;20381;-63
2022/04/09 04:25:22;;;;;;;1.42;1.17;;;1.50;99.90;;;;;;4925946;28;20275;-63
2022/04/09 04:27:50;;;;;;;1.70;1.60;;;1.50;99.90;;;;;;4926203;28;20054;-63
2022/04/09 04:30:19;;;;;;;1.02;1.02;;;1.50;99.90;;;;;;4943304;28;20300;-63
2022/04/09 04:32:47;;;;;;;0.95;0.95;;;1.40;99.90;;;;;;4927464;28;20677;-63
2022/04/09 04:35:17;;;;;;;0.98;0.98;;;1.40;99.90;;;;;;4926908;28;20861;-63
2022/04/09 04:37:47;;;;;;;2.97;1.50;;;1.40;99.90;;;;;;4926789;28;20339;-63
2022/04/09 04:40:18;;;;;;;1.63;1.38;;;1.40;99.90;;;;;;4941910;28;20445;-62
2022/04/09 04:42:52;;;;;;;1.50;1.40;;;1.40;99.90;;;;;;4925871;28;20058;-63
2022/04/09 04:45:22;;;;;;;2.08;1.65;;;1.40;99.90;;;;;;4913613;28;20077;-63
2022/04/09 04:47:52;;;;;;;1.80;1.70;;;1.40;99.90;;;;;;4925078;28;20065;-63
2022/04/09 04:50:23;;;;;;;1.77;1.67;;;1.40;99.90;;;;;;4929476;28;20299;-63
2022/04/09 04:52:52;;;;;;;3.28;1.90;;;1.40;99.90;;;;;;4926057;28;20327;-64
2022/04/09 04:55:22;;;;;;;1.80;1.70;;;1.40;99.90;;;;;;4910432;28;20402;-64
2022/04/09 04:57:52;;;;;;;2.05;1.90;;;1.40;99.90;;;;;;4929371;28;20461;-63
2022/04/09 05:00:28;;;;;;;4.22;2.33;;;1.30;99.90;;;;;;4925479;28;20474;-63
2022/04/09 05:03:01;;;;;;;2.17;1.98;;;1.30;99.90;;;;;;4926261;28;20328;-63
2022/04/09 05:05:30;;;;;;;3.58;2.95;;;1.30;99.90;;;;;;4925617;28;20622;-63
2022/04/09 05:07:58;;;;;;;5.00;3.13;;;1.30;99.90;;;;;;4926394;28;20594;-63
2022/04/09 05:10:27;;;;;;;3.72;3.33;;;1.30;99.90;;;;;;4910547;28;20061;-63
2022/04/09 05:12:59;;;;;;;2.42;2.22;;;1.20;99.90;;;;;;4925925;28;20039;-63
2022/04/09 05:15:28;;;;;;;4.00;3.17;;;1.20;99.90;;;;;;4926219;28;20129;-63
2022/04/09 05:17:56;;;;;;;3.60;3.30;;;1.20;99.90;;;;;;4926899;28;20635;-63
2022/04/09 05:20:23;;;;;;;10.25;5.03;;;1.20;99.90;;;;;;4926213;28;20284;-63
2022/04/09 05:22:54;;;;;;;5.78;4.72;;;1.20;99.90;;;;;;4912638;28;20410;-64
2022/04/09 05:25:21;;;;;;;5.50;3.80;;;1.20;99.90;;;;;;4926721;28;20047;-59
2022/04/09 05:27:52;;;;;;;4.65;2.97;;;1.20;99.90;;;;;;4909365;28;20752;-57
2022/04/09 05:30:32;;;;;;;8.25;6.25;;;1.20;99.90;;;;;;4925106;28;20058;-59
2022/04/09 05:33:01;;;;;;;7.38;6.43;;;1.20;99.90;;;;;;4909639;28;20775;-60
2022/04/09 05:35:28;;;;;;;8.95;7.45;;;1.20;99.90;;;;;;4927252;28;20046;-59
2022/04/09 05:37:56;;;;;;;7.25;5.90;;;1.20;99.90;;;;;;4926670;28;20089;-60
2022/04/09 05:40:29;;;;;;;7.90;6.45;;;1.30;99.90;;;;;;4930027;28;20110;-59
2022/04/09 05:43:00;;;;;;;6.78;5.53;;;1.30;99.90;;;;;;4931443;28;20042;-60
2022/04/09 05:45:28;;;;;;;9.85;5.10;;;1.30;99.90;;;;;;4945907;28;20560;-59
2022/04/09 05:47:55;;;;;;;4.38;3.75;;;1.30;99.90;;;;;;4935624;28;20148;-60
2022/04/09 05:50:32;;;;;;;8.43;4.30;;;1.30;99.90;;;;;;4928282;28;20050;-60
2022/04/09 05:52:59;;;;;;;3.85;3.45;;;1.30;99.90;;;;;;4934543;28;20045;-59
2022/04/09 05:55:27;;;;;;;3.35;2.88;;;1.30;99.90;;;;;;4932319;28;20046;-60
2022/04/09 05:57:55;;;;;;;5.47;4.05;;;1.30;99.90;;;;;;4929223;28;20398;-60
2022/04/09 06:00:23;;;;;;;5.68;2.67;;;1.30;99.90;;;;;;4911454;28;20050;-60
2022/04/09 06:03:03;;;;;;;3.05;2.53;;;1.30;99.90;;;;;;4926642;28;20380;-60
2022/04/09 06:05:35;;;;;;;8.73;3.17;;;1.20;99.90;;;;;;4926559;28;20057;-59
2022/04/09 06:08:09;;;;;;;4.13;2.92;;;1.20;99.90;;;;;;4925033;28;20046;-59
2022/04/09 06:10:38;;;;;;;3.10;2.80;;;1.20;99.90;;;;;;4912025;28;20363;-59
2022/04/09 06:13:05;;;;;;;4.95;3.47;;;1.20;99.90;;;;;;4927738;28;20614;-58
2022/04/09 06:15:34;;;;;;;6.72;3.42;;;1.20;99.90;;;;;;4931924;28;20042;-60
2022/04/09 06:18:08;;;;;;;5.80;3.58;;;1.20;99.90;;;;;;4912351;28;20405;-60
2022/04/09 06:20:35;;;;;;;9.00;3.80;;;1.20;99.90;;;;;;4907480;28;20187;-59
2022/04/09 06:23:06;;;;;;;4.82;2.72;;;1.20;99.90;;;;;;4912441;28;20134;-59
2022/04/09 06:25:34;;;;;;;5.22;3.55;;;1.10;99.90;;;;;;4910960;28;20236;-58
2022/04/09 06:28:03;;;;;;;4.70;3.58;;;1.10;99.90;;;;;;4941453;28;20053;-58
2022/04/09 06:30:33;;;;;;;4.57;4.05;;;1.20;99.90;;;;;;4943765;28;20050;-59
2022/04/09 06:33:07;;;;;;;3.35;2.83;;;1.10;99.90;;;;;;4940655;28;20084;-58
2022/04/09 06:35:35;;;;;;;3.53;3.08;;;1.10;99.90;;;;;;4944683;28;20653;-58
2022/04/09 06:38:07;;;;;;;5.10;3.13;;;1.10;99.90;;;;;;4927460;28;20034;-59
2022/04/09 06:40:34;;;;;;;3.55;3.00;;;1.10;99.90;;;;;;4925961;28;20738;-59
2022/04/09 06:43:02;;;;;;;3.80;2.63;;;1.10;99.90;;;;;;4944033;28;20050;-59
2022/04/09 06:45:48;;;;;;;3.20;2.85;;;1.10;99.90;;;;;;4928418;28;20077;-58
2022/04/09 06:48:36;;;;;;;4.00;3.28;;;1.10;99.90;;;;;;4934714;28;20061;-57
2022/04/09 06:51:22;;;;;;;5.70;3.05;;;1.10;99.90;;;;;;4927233;28;20799;-58
2022/04/09 06:53:53;;;;;;;3.97;2.70;;;1.10;99.90;;;;;;4933842;28;20042;-59
2022/04/09 06:56:20;;;;;;;3.50;2.95;;;1.10;99.90;;;;;;4924024;28;20213;-58
2022/04/09 06:58:49;;;;;;;3.55;3.25;;;1.10;99.90;;;;;;4925516;28;20858;-58
2022/04/09 07:01:17;;;;;;;5.60;3.03;;;1.10;99.90;;;;;;4909095;28;20050;-57
2022/04/09 07:03:46;;;;;;;3.42;2.85;;;1.10;99.90;;;;;;4912169;28;20556;-57
2022/04/09 07:06:15;;;;;;;7.30;3.33;;;1.10;99.90;;;;;;4912956;28;20656;-57
2022/04/09 07:08:43;;;;;;;5.05;3.17;;;1.10;99.90;;;;;;4898874;28;20042;-58
2022/04/09 07:11:10;;;;;;;5.03;3.80;;;1.10;99.90;;;;;;4905508;28;20046;-58
2022/04/09 07:13:37;;;;;;;5.80;4.13;;;1.10;99.90;;;;;;4910101;28;20391;-58
2022/04/09 07:16:04;;;;;;;5.43;4.57;;;1.20;99.90;;;;;;4921825;28;20045;-56
2022/04/09 07:18:35;;;;;;;8.40;4.45;;;1.20;99.90;;;;;;4924859;28;20587;-58
2022/04/09 07:21:02;;;;;;;5.80;4.63;;;1.20;99.90;;;;;;4930486;28;20030;-58
2022/04/09 07:23:29;;;;;;;6.07;4.55;;;1.20;99.90;;;;;;4913792;28;20046;-59
2022/04/09 07:25:57;;;;;;;7.28;5.97;;;1.30;99.90;;;;;;4938347;28;20699;-57
2022/04/09 07:28:24;;;;;;;9.65;5.63;;;1.30;99.90;;;;;;4953928;28;20523;-57
2022/04/09 07:30:51;;;;;;;7.97;6.13;;;1.30;99.90;;;;;;4945844;28;20582;-58
2022/04/09 07:33:18;;;;;;;9.32;6.47;;;1.40;99.90;;;;;;4937757;28;20749;-59
2022/04/09 07:35:45;;;;;;;8.45;6.57;;;1.40;99.90;;;;;;4933971;28;20046;-58
2022/04/09 07:38:12;;;;;;;9.68;7.43;;;1.50;99.90;;;;;;4933770;28;20136;-58
2022/04/09 07:40:40;;;;;;;11.68;7.85;;;1.50;99.90;;;;;;4933728;28;20046;-59
2022/04/09 07:43:07;;;;;;;13.32;9.93;;;1.50;99.90;;;;;;4935014;28;20054;-58
2022/04/09 07:45:34;;;;;;;9.88;7.93;;;1.60;99.90;;;;;;4937585;28;20203;-59
2022/04/09 07:48:01;;;;;;;13.45;10.13;;;1.60;99.90;;;;;;4931212;28;20078;-59
2022/04/09 07:50:29;;;;;;;13.40;9.02;;;1.70;99.90;;;;;;4933581;28;20061;-59
2022/04/09 07:52:56;;;;;;;12.48;9.20;;;1.70;99.90;;;;;;4935124;28;20563;-60
2022/04/09 07:55:24;;;;;;;15.77;9.40;;;1.80;99.90;;;;;;4936119;28;20046;-59
2022/04/09 07:57:52;;;;;;;16.15;10.50;;;1.80;99.90;;;;;;4934768;28;20382;-59
2022/04/09 08:00:21;;;;;;;15.98;9.50;;;1.80;99.90;;;;;;4931986;28;20252;-58
2022/04/09 08:02:48;;;;;;;16.73;10.75;;;1.90;99.90;;;;;;4936367;28;20043;-60
2022/04/09 08:05:18;;;;;;;14.23;9.90;;;1.90;99.90;;;;;;4943136;28;20061;-59
2022/04/09 08:07:46;;;;;;;14.70;9.30;;;2.00;99.90;;;;;;4948589;28;20481;-61
2022/04/09 08:10:14;;;;;;;14.18;9.57;;;2.00;99.90;;;;;;4950040;28;20045;-60
2022/04/09 08:12:42;;;;;;;14.52;10.27;;;2.10;99.90;;;;;;4948194;28;20515;-58
2022/04/09 08:15:10;;;;;;;13.13;9.43;;;2.10;99.90;;;;;;4946525;28;20338;-60
2022/04/09 08:17:41;;;;;;;12.10;9.27;;;2.10;99.90;;;;;;4930846;28;20579;-61
2022/04/09 08:20:09;;;;;;;17.70;9.85;;;2.10;99.90;;;;;;4935208;28;20110;-61
2022/04/09 08:22:37;;;;;;;12.40;9.65;;;2.10;99.90;;;;;;4932711;28;20079;-57
2022/04/09 08:25:09;;;;;;;11.02;7.50;;;2.10;99.90;;;;;;4934879;28;20038;-61
2022/04/09 08:27:38;;;;;;;11.32;9.50;;;2.10;99.90;;;;;;4936114;28;20065;-59
2022/04/09 08:30:06;;;;;;;12.15;9.75;;;2.10;99.90;;;;;;4913799;28;20861;-61
2022/04/09 08:32:33;;;;;;;11.18;9.10;;;2.10;99.90;;;;;;4934323;28;20872;-56
2022/04/09 08:35:01;;;;;;;10.50;9.13;;;2.20;99.90;;;;;;4935331;28;20038;-57
2022/04/09 08:37:29;;;;;;;13.88;8.98;;;2.20;99.90;;;;;;4931311;28;20831;-56
2022/04/09 08:39:56;;;;;;;11.32;7.78;;;2.30;99.90;;;;;;4942136;28;20366;-56
2022/04/09 08:42:23;;;;;;;12.93;8.15;;;2.30;99.90;;;;;;4934534;28;20578;-57
2022/04/09 08:44:51;;;;;;;11.20;7.78;;;2.40;99.90;;;;;;4934382;28;20058;-57
2022/04/09 08:47:18;;;;;;;10.50;8.30;;;2.50;99.90;;;;;;4929634;28;20169;-57
2022/04/09 08:49:47;;;;;;;11.85;8.60;;;2.50;99.90;;;;;;4935810;28;20050;-57
2022/04/09 08:52:16;;;;;;;12.45;8.35;;;2.50;99.90;;;;;;4929928;28;20922;-58
2022/04/09 08:54:43;;;;;;;15.43;9.13;;;2.50;99.90;;;;;;4932769;28;20039;-57
2022/04/09 08:57:11;;;;;;;10.23;7.82;;;2.50;99.90;;;;;;4930334;28;20075;-58
2022/04/09 08:59:38;;;;;;;12.52;8.95;;;2.50;99.90;;;;;;4934874;28;20058;-58
2022/04/09 09:02:05;;;;;;;10.52;8.73;;;2.50;99.90;;;;;;4928820;28;20046;-57
2022/04/09 09:04:33;;;;;;;11.13;8.00;;;2.50;99.90;;;;;;4930684;28;20070;-57
2022/04/09 09:07:18;;;;;;;12.00;8.90;;;2.40;99.90;;;;;;4935052;28;20069;-58
2022/04/09 09:09:46;;;;;;;12.13;9.63;;;2.40;99.90;;;;;;4932676;28;20246;-61
2022/04/09 09:12:27;;;;;;;11.77;8.77;;;2.40;99.90;;;;;;4932285;28;20046;-61
2022/04/09 09:14:55;;;;;;;11.07;8.70;;;2.40;99.90;;;;;;4931275;28;20153;-59
2022/04/09 09:17:29;;;;;;;12.05;8.98;;;2.40;99.90;;;;;;4933501;28;20141;-62
2022/04/09 09:19:57;;;;;;;10.63;8.57;;;2.40;99.90;;;;;;4949025;28;20046;-62
2022/04/09 09:22:37;;;;;;;14.98;9.02;;;2.40;99.90;;;;;;4935033;28;20049;-61
2022/04/09 09:25:09;;;;;;;13.45;9.45;;;2.40;99.90;;;;;;4950000;28;20053;-62
2022/04/09 09:27:37;;;;;;;12.70;8.43;;;2.40;99.90;;;;;;4931670;28;20599;-61
2022/04/09 09:30:06;;;;;;;13.95;9.32;;;2.40;99.90;;;;;;4950655;28;20304;-57
2022/04/09 09:32:34;;;;;;;12.52;9.48;;;2.40;99.90;;;;;;4932574;28;20049;-61
2022/04/09 09:35:14;;;;;;;12.93;9.38;;;2.40;99.90;;;;;;4934120;28;20151;-61
2022/04/09 09:37:41;;;;;;;12.15;9.77;;;2.40;99.90;;;;;;4935492;28;20038;-59
2022/04/09 09:40:09;;;;;;;12.88;10.50;;;2.50;99.90;;;;;;4934557;28;20030;-63
2022/04/09 09:42:36;;;;;;;13.50;9.52;;;2.60;99.90;;;;;;4932255;28;20046;-60
2022/04/09 09:45:05;;;;;;;12.35;10.32;;;2.70;99.90;;;;;;4931059;28;20310;-57
2022/04/09 09:47:32;;;;;;;15.23;11.13;;;2.90;99.90;;;;;;4944400;28;20042;-56
2022/04/09 09:49:59;;;;;;;13.02;9.95;;;3.10;99.90;;;;;;4930076;28;20128;-58
2022/04/09 09:52:31;;;;;;;15.15;9.52;;;3.30;99.90;;;;;;4932951;28;20042;-57
2022/04/09 09:55:19;;;;;;;11.73;9.25;;;3.50;99.90;;;;;;4934339;28;20042;-57
2022/04/09 09:57:52;;;;;;;13.55;10.85;;;3.60;99.90;;;;;;4932371;28;20057;-62
2022/04/09 10:00:20;;;;;;;12.40;10.18;;;4.00;99.90;;;;;;4932836;28;20049;-58
2022/04/09 10:02:48;;;;;;;14.07;9.95;;;4.30;99.90;;;;;;4927197;28;20547;-57
2022/04/09 10:05:16;;;;;;;14.40;9.45;;;4.60;99.90;;;;;;4932097;28;20081;-58
2022/04/09 10:07:45;;;;;;;13.65;10.23;;;4.80;99.90;;;;;;4932600;28;20038;-56
2022/04/09 10:10:13;;;;;;;17.67;11.82;;;4.90;99.90;;;;;;4917762;28;20395;-58
2022/04/09 10:12:41;;;;;;;13.25;10.23;;;5.00;99.90;;;;;;4930998;28;20657;-57
2022/04/09 10:15:09;;;;;;;11.82;9.88;;;5.10;99.90;;;;;;4931829;28;20591;-58
2022/04/09 10:17:38;;;;;;;12.05;10.02;;;5.20;99.90;;;;;;4930173;28;20204;-56
2022/04/09 10:20:06;;;;;;;11.40;8.82;;;5.30;99.90;;;;;;4929516;28;20049;-57
2022/04/09 10:22:37;;;;;;;8.18;7.00;;;5.20;99.90;;;;;;4934526;28;20046;-58
2022/04/09 10:25:06;;;;;;;8.57;6.65;;;5.20;99.90;;;;;;4929369;28;20346;-61
2022/04/09 10:27:38;;;;;;;9.57;6.40;;;5.20;99.90;;;;;;4916511;28;20872;-64
2022/04/09 10:30:16;;;;;;;8.32;6.35;;;5.00;99.90;;;;;;4934477;28;20722;-62
2022/04/09 10:32:59;;;;;;;8.80;6.70;;;4.80;99.90;;;;;;4934601;28;20061;-59
2022/04/09 10:35:39;;;;;;;8.70;6.47;;;4.60;99.90;;;;;;4913942;28;20889;-57
2022/04/09 10:38:07;;;;;;;7.82;6.15;;;4.30;99.90;;;;;;4930815;28;20113;-60
2022/04/09 10:41:23;;;;;;;10.60;6.82;;;4.10;99.90;;;;;;4931256;28;20034;-59
2022/04/09 10:43:51;;;;;;;11.05;6.63;;;4.00;99.90;;;;;;4929765;28;20042;-60
2022/04/09 10:46:21;;;;;;;8.20;7.13;;;3.90;99.90;;;;;;4926112;28;20374;-59
2022/04/09 10:48:48;;;;;;;7.90;7.13;;;4.00;99.90;;;;;;4925298;28;20061;-58
2022/04/09 10:51:17;;;;;;;8.95;7.68;;;4.00;99.90;;;;;;4934061;28;20603;-56
2022/04/09 10:53:47;;;;;;;10.95;8.93;;;4.20;99.90;;;;;;4929257;28;20076;-59
2022/04/09 10:56:25;;;;;;;10.25;8.00;;;4.40;99.90;;;;;;4927371;28;20844;-58
2022/04/09 10:59:16;;;;;;;13.77;8.85;;;4.80;99.90;;;;;;4933876;28;20218;-57
2022/04/09 11:01:45;;;;;;;10.48;7.75;;;5.30;99.90;;;;;;4931997;28;20048;-58
2022/04/09 11:04:34;;;;;;;8.88;7.78;;;5.70;99.90;;;;;;4944421;28;20563;-58
2022/04/09 11:07:17;;;;;;;9.00;7.28;;;6.00;99.90;;;;;;4944117;28;20038;-61
2022/04/09 11:09:56;;;;;;;9.50;7.43;;;6.30;99.90;;;;;;4946144;28;20877;-58
2022/04/09 11:12:38;;;;;;;9.73;8.55;;;6.50;99.90;;;;;;4946114;28;20832;-58
2022/04/09 11:15:15;;;;;;;8.27;6.95;;;6.60;99.90;;;;;;4941830;28;20049;-57
2022/04/09 11:17:43;;;;;;;8.27;7.25;;;6.50;99.90;;;;;;4926315;28;20053;-58
2022/04/09 11:20:26;;;;;;;12.90;8.93;;;6.30;99.90;;;;;;4926161;28;20043;-59
2022/04/09 11:22:55;;;;;;;14.45;8.10;;;6.30;99.90;;;;;;4928339;28;20188;-57
2022/04/09 11:25:30;;;;;;;12.18;7.78;;;6.20;99.90;;;;;;4928688;28;20582;-57
2022/04/09 11:28:20;;;;;;;8.73;7.82;;;6.30;99.90;;;;;;4925736;28;20422;-58
2022/04/09 11:30:59;;;;;;;12.52;8.30;;;6.50;99.90;;;;;;4930786;28;20153;-62
2022/04/09 11:33:27;;;;;;;9.60;7.88;;;6.70;99.90;;;;;;4925750;28;20449;-57
2022/04/09 11:35:55;;;;;;;8.05;6.45;;;6.90;99.90;;;;;;4928322;28;20046;-56
2022/04/09 11:38:25;;;;;;;8.98;7.32;;;6.90;99.90;;;;;;4928438;28;20548;-59
2022/04/09 11:40:54;;;;;;;11.57;8.38;;;6.90;99.90;;;;;;4929427;28;20101;-59
2022/04/09 11:43:23;;;;;;;10.40;7.47;;;6.90;99.90;;;;;;4932831;28;20046;-60
2022/04/09 11:45:50;;;;;;;8.32;6.55;;;6.90;99.90;;;;;;4928688;28;20042;-60
2022/04/09 11:48:20;;;;;;;10.73;7.00;;;6.90;99.90;;;;;;4932165;28;20054;-59
2022/04/09 11:50:48;;;;;;;9.48;6.95;;;7.00;99.90;;;;;;4928688;28;20049;-60
2022/04/09 11:53:16;;;;;;;7.13;6.40;;;6.90;99.90;;;;;;4928466;28;20575;-59
2022/04/09 11:55:45;;;;;;;8.65;6.53;;;6.70;99.90;;;;;;4926603;28;20217;-58
2022/04/09 11:58:19;;;;;;;8.68;6.75;;;6.70;99.90;;;;;;4933249;28;20105;-59
2022/04/09 12:00:46;;;;;;;7.55;5.88;;;6.60;99.90;;;;;;4930499;28;20041;-58
2022/04/09 12:03:14;;;;;;;7.65;6.28;;;6.60;99.90;;;;;;4925716;28;20371;-58
2022/04/09 12:05:46;;;;;;;6.70;4.53;;;6.50;99.90;;;;;;4930000;28;20883;-59
2022/04/09 12:08:18;;;;;;;5.30;4.10;;;6.20;99.90;;;;;;4913361;28;20147;-60
2022/04/09 12:10:55;;;;;;;6.75;4.05;;;5.90;99.90;;;;;;4909587;28;20622;-60
2022/04/09 12:13:27;;;;;;;7.53;4.00;;;5.50;99.90;;;;;;4929329;28;20187;-58
2022/04/09 12:16:01;;;;;;;7.97;3.95;;;5.10;99.90;;;;;;4925661;28;20042;-57
2022/04/09 12:18:31;;;;;;;8.18;4.07;;;4.90;99.90;;;;;;4930673;28;20049;-59
2022/04/09 12:21:04;;;;;;;10.18;3.97;;;4.60;99.90;;;;;;4915523;28;20077;-59
2022/04/09 12:23:33;;;;;;;4.35;3.53;;;4.40;99.90;;;;;;4933649;28;20959;-57
2022/04/09 12:26:01;;;;;;;9.70;4.30;;;4.20;99.90;;;;;;4930596;28;20057;-59
2022/04/09 12:28:32;;;;;;;5.20;4.53;;;4.20;99.90;;;;;;4935211;28;20983;-59
2022/04/09 12:31:00;;;;;;;6.25;4.72;;;4.40;99.90;;;;;;4932851;28;20050;-59
2022/04/09 12:33:28;;;;;;;5.97;4.13;;;4.80;99.90;;;;;;4933096;28;20038;-59
2022/04/09 12:36:08;;;;;;;10.45;4.63;;;5.30;99.90;;;;;;4936793;28;20045;-59
2022/04/09 12:38:41;;;;;;;5.45;4.00;;;5.80;99.90;;;;;;4913103;28;20663;-58
2022/04/09 12:41:09;;;;;;;10.40;5.13;;;6.20;99.90;;;;;;4929847;28;20093;-59
2022/04/09 12:43:39;;;;;;;5.18;4.22;;;6.80;99.90;;;;;;4930806;28;20213;-59
2022/04/09 12:46:15;;;;;;;5.57;4.05;;;7.30;99.90;;;;;;4933100;28;20066;-62
2022/04/09 12:48:43;;;;;;;4.32;3.92;;;7.50;99.90;;;;;;4933439;28;20056;-55
2022/04/09 12:51:12;;;;;;;6.20;3.60;;;7.50;99.90;;;;;;4932047;28;20057;-56
2022/04/09 12:53:40;;;;;;;6.10;4.75;;;7.40;99.90;;;;;;4915100;28;20123;-57
2022/04/09 12:56:10;;;;;;;5.65;4.22;;;7.40;99.90;;;;;;4930111;28;20053;-55
2022/04/09 12:58:37;;;;;;;4.05;3.65;;;7.40;99.90;;;;;;4934643;28;20809;-55
2022/04/09 13:01:05;;;;;;;6.22;3.53;;;7.30;99.90;;;;;;4932502;28;20262;-57
2022/04/09 13:03:33;;;;;;;5.05;4.07;;;7.30;99.90;;;;;;4933233;28;20046;-55
2022/04/09 13:06:01;;;;;;;6.85;4.05;;;7.20;99.90;;;;;;4927653;28;20556;-57
2022/04/09 13:08:28;;;;;;;4.20;3.63;;;7.10;99.90;;;;;;4931955;28;20145;-58
2022/04/09 13:10:56;;;;;;;5.22;4.03;;;7.10;99.90;;;;;;4934006;28;20943;-62